Hlavní strana
METAR-TAF:

METAR-TAF

Letiště :

Letiště Zürich

Curych, Švýcarsko

zeměpisná šířka: 47-29N, zeměpisná délka: 008-32E, výška: 436 m

Aktuální stav počasí

Zpráva byla vytvořena před 39 minutami, v 20:50 UTC
Západoseverozápadní vítr 6 kt
Teplota 7°C
Vlhkost vzduchu 57%
Tlak 1022 hPa
Viditelnost 10 km a více
Žádná oblačnost pod 1500 m, nevyskytují se cumulonimby.

METAR: LSZH 042050Z 29006KT CAVOK 07/M01 Q1022 NOSIG

Čas: 23:29 (21:29 UTC)

Předpověď počasí

Zpráva byla vytvořena před 1 hodinou a 4 minutami, v 20:25 UTC
Předpověď platná od 04 v 21 UTC do 06 v 03 UTC
vítr z různých směrů 3 kt
Viditelnost 10 km a více
Žádná oblačnost pod 1500 m, nevyskytují se cumulonimby.
Změna
od 05 v 09 UTC do 05 v 12 UTC
Severovýchodní vítr 6 kt
Změna
od 05 v 17 UTC do 05 v 21 UTC
vítr z různých směrů 3 kt

TAF: LSZH 042025Z 0421/0603 VRB03KT CAVOK TX19/0515Z TN00/0505Z BECMG 0509/0512 05006KT BECMG 0517/0521 VRB03KT

Stav a předpovědi počasí z více než 4 000 letišť (zprávy METAR a TAF).

Červené a žluté tečky na mapě představují dostupné meteorologické stanice.

Když kurzor umístíte na tečku, zobrazí se název stanice.

Pak kliknutím zobrazíte stav a předpověď počasí.

Chcete-li změnit mapu, kliknutím na zelené tlačítko se znaménkem +mapu přiblížíte, kliknutím na zelené tlačítko se znaménkem – mapu oddálíte a kliknutím na zelené šipky přejdete na sousední mapy.


METAR-TAF: